sensor_id;sensor_type;location;lat;lon;timestamp;P1;durP1;ratioP1;P2;durP2;ratioP2
28625;SDS011;18905;42.668;23.364;2023-04-25T00:01:40;6.07;;;4.25;;
28625;SDS011;18905;42.668;23.364;2023-04-25T00:04:05;4.57;;;3.90;;
28625;SDS011;18905;42.668;23.364;2023-04-25T00:06:31;6.28;;;4.00;;
28625;SDS011;18905;42.668;23.364;2023-04-25T00:09:01;6.72;;;3.75;;
28625;SDS011;18905;42.668;23.364;2023-04-25T00:11:28;7.57;;;4.45;;
28625;SDS011;18905;42.668;23.364;2023-04-25T00:13:56;6.80;;;4.57;;
28625;SDS011;18905;42.668;23.364;2023-04-25T00:16:22;7.40;;;4.90;;
28625;SDS011;18905;42.668;23.364;2023-04-25T00:18:48;7.80;;;4.55;;
28625;SDS011;18905;42.668;23.364;2023-04-25T00:21:18;7.10;;;5.20;;
28625;SDS011;18905;42.668;23.364;2023-04-25T00:23:45;10.30;;;5.70;;
28625;SDS011;18905;42.668;23.364;2023-04-25T00:26:11;12.40;;;6.35;;
28625;SDS011;18905;42.668;23.364;2023-04-25T00:28:37;7.38;;;5.60;;
28625;SDS011;18905;42.668;23.364;2023-04-25T00:31:03;13.73;;;6.82;;
28625;SDS011;18905;42.668;23.364;2023-04-25T00:33:31;10.13;;;6.82;;
28625;SDS011;18905;42.668;23.364;2023-04-25T00:35:57;8.95;;;6.38;;
28625;SDS011;18905;42.668;23.364;2023-04-25T00:38:22;9.98;;;6.15;;
28625;SDS011;18905;42.668;23.364;2023-04-25T00:40:48;8.48;;;6.05;;
28625;SDS011;18905;42.668;23.364;2023-04-25T00:43:14;10.40;;;6.38;;
28625;SDS011;18905;42.668;23.364;2023-04-25T00:45:40;7.90;;;5.93;;
28625;SDS011;18905;42.668;23.364;2023-04-25T00:48:05;7.80;;;6.28;;
28625;SDS011;18905;42.668;23.364;2023-04-25T00:50:34;12.55;;;6.57;;
28625;SDS011;18905;42.668;23.364;2023-04-25T00:53:01;9.52;;;5.72;;
28625;SDS011;18905;42.668;23.364;2023-04-25T00:55:28;9.65;;;6.32;;
28625;SDS011;18905;42.668;23.364;2023-04-25T00:57:57;9.18;;;5.43;;
28625;SDS011;18905;42.668;23.364;2023-04-25T01:00:23;8.35;;;5.05;;
28625;SDS011;18905;42.668;23.364;2023-04-25T01:02:49;8.68;;;5.18;;
28625;SDS011;18905;42.668;23.364;2023-04-25T01:05:15;7.57;;;4.40;;
28625;SDS011;18905;42.668;23.364;2023-04-25T01:07:41;7.40;;;5.05;;
28625;SDS011;18905;42.668;23.364;2023-04-25T01:10:07;5.30;;;3.70;;
28625;SDS011;18905;42.668;23.364;2023-04-25T01:12:33;6.28;;;4.10;;
28625;SDS011;18905;42.668;23.364;2023-04-25T01:15:00;5.30;;;4.00;;
28625;SDS011;18905;42.668;23.364;2023-04-25T01:17:26;6.35;;;4.28;;
28625;SDS011;18905;42.668;23.364;2023-04-25T01:19:52;7.07;;;4.85;;
28625;SDS011;18905;42.668;23.364;2023-04-25T01:22:18;9.88;;;4.57;;
28625;SDS011;18905;42.668;23.364;2023-04-25T01:24:45;7.82;;;4.93;;
28625;SDS011;18905;42.668;23.364;2023-04-25T01:27:12;6.78;;;4.40;;
28625;SDS011;18905;42.668;23.364;2023-04-25T01:29:38;7.75;;;5.20;;
28625;SDS011;18905;42.668;23.364;2023-04-25T01:32:05;6.43;;;5.03;;
28625;SDS011;18905;42.668;23.364;2023-04-25T01:34:31;8.10;;;5.60;;
28625;SDS011;18905;42.668;23.364;2023-04-25T01:36:57;8.23;;;6.10;;
28625;SDS011;18905;42.668;23.364;2023-04-25T01:39:24;9.50;;;5.60;;
28625;SDS011;18905;42.668;23.364;2023-04-25T01:41:50;8.13;;;6.03;;
28625;SDS011;18905;42.668;23.364;2023-04-25T01:44:16;8.98;;;6.03;;
28625;SDS011;18905;42.668;23.364;2023-04-25T01:46:42;6.88;;;6.00;;
28625;SDS011;18905;42.668;23.364;2023-04-25T01:49:08;9.10;;;6.22;;
28625;SDS011;18905;42.668;23.364;2023-04-25T01:51:34;12.73;;;6.55;;
28625;SDS011;18905;42.668;23.364;2023-04-25T01:54:00;10.27;;;5.68;;
28625;SDS011;18905;42.668;23.364;2023-04-25T01:56:29;9.45;;;5.90;;
28625;SDS011;18905;42.668;23.364;2023-04-25T01:58:59;7.50;;;5.70;;
28625;SDS011;18905;42.668;23.364;2023-04-25T02:01:25;9.07;;;6.00;;
28625;SDS011;18905;42.668;23.364;2023-04-25T02:03:50;9.38;;;5.80;;
28625;SDS011;18905;42.668;23.364;2023-04-25T02:06:16;7.70;;;5.82;;
28625;SDS011;18905;42.668;23.364;2023-04-25T02:08:42;7.15;;;5.50;;
28625;SDS011;18905;42.668;23.364;2023-04-25T02:11:08;7.95;;;5.97;;
28625;SDS011;18905;42.668;23.364;2023-04-25T02:13:33;7.53;;;5.30;;
28625;SDS011;18905;42.668;23.364;2023-04-25T02:15:59;7.50;;;5.57;;
28625;SDS011;18905;42.668;23.364;2023-04-25T02:18:25;6.95;;;5.47;;
28625;SDS011;18905;42.668;23.364;2023-04-25T02:20:51;10.15;;;5.78;;
28625;SDS011;18905;42.668;23.364;2023-04-25T02:23:17;8.65;;;5.97;;
28625;SDS011;18905;42.668;23.364;2023-04-25T02:25:44;8.10;;;6.13;;
28625;SDS011;18905;42.668;23.364;2023-04-25T02:28:10;6.75;;;5.35;;
28625;SDS011;18905;42.668;23.364;2023-04-25T02:30:36;7.68;;;5.68;;
28625;SDS011;18905;42.668;23.364;2023-04-25T02:33:01;7.43;;;5.50;;
28625;SDS011;18905;42.668;23.364;2023-04-25T02:35:27;8.60;;;6.15;;
28625;SDS011;18905;42.668;23.364;2023-04-25T02:37:54;8.13;;;6.35;;
28625;SDS011;18905;42.668;23.364;2023-04-25T02:40:20;8.13;;;5.65;;
28625;SDS011;18905;42.668;23.364;2023-04-25T02:42:45;6.15;;;5.45;;
28625;SDS011;18905;42.668;23.364;2023-04-25T02:45:11;6.15;;;5.32;;
28625;SDS011;18905;42.668;23.364;2023-04-25T02:47:37;11.40;;;6.00;;
28625;SDS011;18905;42.668;23.364;2023-04-25T02:50:03;11.20;;;6.95;;
28625;SDS011;18905;42.668;23.364;2023-04-25T02:52:29;9.32;;;6.30;;
28625;SDS011;18905;42.668;23.364;2023-04-25T02:54:55;7.95;;;6.10;;
28625;SDS011;18905;42.668;23.364;2023-04-25T02:57:21;7.75;;;6.07;;
28625;SDS011;18905;42.668;23.364;2023-04-25T02:59:47;8.10;;;5.75;;
28625;SDS011;18905;42.668;23.364;2023-04-25T03:02:13;15.38;;;6.78;;
28625;SDS011;18905;42.668;23.364;2023-04-25T03:04:39;10.13;;;7.03;;
28625;SDS011;18905;42.668;23.364;2023-04-25T03:07:05;9.25;;;6.75;;
28625;SDS011;18905;42.668;23.364;2023-04-25T03:09:30;7.95;;;6.57;;
28625;SDS011;18905;42.668;23.364;2023-04-25T03:11:56;9.50;;;7.18;;
28625;SDS011;18905;42.668;23.364;2023-04-25T03:14:22;9.00;;;7.13;;
28625;SDS011;18905;42.668;23.364;2023-04-25T03:16:48;9.25;;;7.32;;
28625;SDS011;18905;42.668;23.364;2023-04-25T03:19:14;10.55;;;7.70;;
28625;SDS011;18905;42.668;23.364;2023-04-25T03:21:42;12.57;;;8.10;;
28625;SDS011;18905;42.668;23.364;2023-04-25T03:24:08;12.63;;;7.82;;
28625;SDS011;18905;42.668;23.364;2023-04-25T03:31:44;12.02;;;8.07;;
28625;SDS011;18905;42.668;23.364;2023-04-25T03:34:10;13.57;;;9.10;;
28625;SDS011;18905;42.668;23.364;2023-04-25T03:36:39;14.88;;;7.80;;
28625;SDS011;18905;42.668;23.364;2023-04-25T03:39:05;13.77;;;9.35;;
28625;SDS011;18905;42.668;23.364;2023-04-25T03:41:31;11.45;;;8.15;;
28625;SDS011;18905;42.668;23.364;2023-04-25T03:43:57;13.98;;;9.95;;
28625;SDS011;18905;42.668;23.364;2023-04-25T03:46:23;14.57;;;9.52;;
28625;SDS011;18905;42.668;23.364;2023-04-25T03:48:49;12.80;;;8.88;;
28625;SDS011;18905;42.668;23.364;2023-04-25T03:51:15;13.38;;;9.40;;
28625;SDS011;18905;42.668;23.364;2023-04-25T03:53:41;12.38;;;8.73;;
28625;SDS011;18905;42.668;23.364;2023-04-25T03:56:07;11.95;;;8.75;;
28625;SDS011;18905;42.668;23.364;2023-04-25T03:58:33;14.43;;;9.23;;
28625;SDS011;18905;42.668;23.364;2023-04-25T04:00:58;9.45;;;7.72;;
28625;SDS011;18905;42.668;23.364;2023-04-25T04:03:24;145.35;;;78.63;;
28625;SDS011;18905;42.668;23.364;2023-04-25T04:05:50;174.88;;;88.65;;
28625;SDS011;18905;42.668;23.364;2023-04-25T04:08:15;321.13;;;149.77;;
28625;SDS011;18905;42.668;23.364;2023-04-25T04:10:40;408.73;;;187.60;;
28625;SDS011;18905;42.668;23.364;2023-04-25T04:13:06;79.03;;;35.58;;
28625;SDS011;18905;42.668;23.364;2023-04-25T04:15:31;11.98;;;7.72;;
28625;SDS011;18905;42.668;23.364;2023-04-25T04:17:58;6.78;;;5.88;;
28625;SDS011;18905;42.668;23.364;2023-04-25T04:20:27;8.85;;;6.82;;
28625;SDS011;18905;42.668;23.364;2023-04-25T04:22:54;8.18;;;6.95;;
28625;SDS011;18905;42.668;23.364;2023-04-25T04:25:19;13.57;;;6.57;;
28625;SDS011;18905;42.668;23.364;2023-04-25T04:27:45;12.15;;;7.45;;
28625;SDS011;18905;42.668;23.364;2023-04-25T04:30:11;12.32;;;7.90;;
28625;SDS011;18905;42.668;23.364;2023-04-25T04:32:37;9.35;;;7.65;;
28625;SDS011;18905;42.668;23.364;2023-04-25T04:35:03;11.63;;;8.02;;
28625;SDS011;18905;42.668;23.364;2023-04-25T04:37:29;14.73;;;7.80;;
28625;SDS011;18905;42.668;23.364;2023-04-25T04:39:55;9.30;;;6.63;;
28625;SDS011;18905;42.668;23.364;2023-04-25T04:42:21;14.50;;;7.30;;
28625;SDS011;18905;42.668;23.364;2023-04-25T04:44:47;11.65;;;7.07;;
28625;SDS011;18905;42.668;23.364;2023-04-25T04:47:13;12.15;;;8.27;;
28625;SDS011;18905;42.668;23.364;2023-04-25T04:49:39;13.48;;;9.02;;
28625;SDS011;18905;42.668;23.364;2023-04-25T04:52:05;13.13;;;8.30;;
28625;SDS011;18905;42.668;23.364;2023-04-25T04:54:31;12.65;;;8.77;;
28625;SDS011;18905;42.668;23.364;2023-04-25T04:56:57;14.52;;;8.60;;
28625;SDS011;18905;42.668;23.364;2023-04-25T04:59:22;13.10;;;9.35;;
28625;SDS011;18905;42.668;23.364;2023-04-25T05:01:48;13.35;;;10.25;;
28625;SDS011;18905;42.668;23.364;2023-04-25T05:04:14;12.70;;;9.77;;
28625;SDS011;18905;42.668;23.364;2023-04-25T05:06:40;15.38;;;10.70;;
28625;SDS011;18905;42.668;23.364;2023-04-25T05:09:06;17.27;;;11.95;;
28625;SDS011;18905;42.668;23.364;2023-04-25T05:11:32;15.57;;;12.30;;
28625;SDS011;18905;42.668;23.364;2023-04-25T05:13:58;19.77;;;12.80;;
28625;SDS011;18905;42.668;23.364;2023-04-25T05:16:26;19.58;;;13.98;;
28625;SDS011;18905;42.668;23.364;2023-04-25T05:18:51;20.15;;;14.45;;
28625;SDS011;18905;42.668;23.364;2023-04-25T05:21:17;18.17;;;13.77;;
28625;SDS011;18905;42.668;23.364;2023-04-25T05:23:43;19.00;;;13.25;;
28625;SDS011;18905;42.668;23.364;2023-04-25T05:26:13;19.35;;;11.57;;
28625;SDS011;18905;42.668;23.364;2023-04-25T05:28:42;19.15;;;13.35;;
28625;SDS011;18905;42.668;23.364;2023-04-25T05:31:09;18.30;;;12.48;;
28625;SDS011;18905;42.668;23.364;2023-04-25T05:33:37;22.40;;;10.93;;
28625;SDS011;18905;42.668;23.364;2023-04-25T05:36:03;22.75;;;13.88;;
28625;SDS011;18905;42.668;23.364;2023-04-25T05:38:29;26.45;;;14.65;;
28625;SDS011;18905;42.668;23.364;2023-04-25T05:40:55;20.55;;;12.80;;
28625;SDS011;18905;42.668;23.364;2023-04-25T05:43:21;26.40;;;14.25;;
28625;SDS011;18905;42.668;23.364;2023-04-25T05:45:47;22.00;;;14.13;;
28625;SDS011;18905;42.668;23.364;2023-04-25T05:48:13;17.50;;;11.95;;
28625;SDS011;18905;42.668;23.364;2023-04-25T05:50:39;14.27;;;10.10;;
28625;SDS011;18905;42.668;23.364;2023-04-25T05:53:08;18.10;;;10.95;;
28625;SDS011;18905;42.668;23.364;2023-04-25T05:55:34;15.73;;;11.15;;
28625;SDS011;18905;42.668;23.364;2023-04-25T05:58:00;14.25;;;10.20;;
28625;SDS011;18905;42.668;23.364;2023-04-25T06:00:26;15.50;;;10.18;;
28625;SDS011;18905;42.668;23.364;2023-04-25T06:02:54;16.23;;;9.43;;
28625;SDS011;18905;42.668;23.364;2023-04-25T06:05:20;13.20;;;8.38;;
28625;SDS011;18905;42.668;23.364;2023-04-25T06:07:46;11.55;;;8.70;;
28625;SDS011;18905;42.668;23.364;2023-04-25T06:10:11;13.30;;;8.75;;
28625;SDS011;18905;42.668;23.364;2023-04-25T06:12:37;13.45;;;8.50;;
28625;SDS011;18905;42.668;23.364;2023-04-25T06:15:04;10.48;;;6.22;;
28625;SDS011;18905;42.668;23.364;2023-04-25T06:17:30;7.32;;;5.75;;
28625;SDS011;18905;42.668;23.364;2023-04-25T06:19:56;8.90;;;6.28;;
28625;SDS011;18905;42.668;23.364;2023-04-25T06:22:21;10.63;;;6.85;;
28625;SDS011;18905;42.668;23.364;2023-04-25T06:24:47;11.10;;;7.35;;
28625;SDS011;18905;42.668;23.364;2023-04-25T06:27:15;12.23;;;7.78;;
28625;SDS011;18905;42.668;23.364;2023-04-25T06:29:41;10.00;;;7.22;;
28625;SDS011;18905;42.668;23.364;2023-04-25T06:32:07;13.18;;;7.88;;
28625;SDS011;18905;42.668;23.364;2023-04-25T06:34:33;10.48;;;7.30;;
28625;SDS011;18905;42.668;23.364;2023-04-25T06:36:59;9.73;;;7.22;;
28625;SDS011;18905;42.668;23.364;2023-04-25T06:39:24;9.95;;;7.50;;
28625;SDS011;18905;42.668;23.364;2023-04-25T06:41:53;13.45;;;6.82;;
28625;SDS011;18905;42.668;23.364;2023-04-25T06:44:18;8.98;;;6.38;;
28625;SDS011;18905;42.668;23.364;2023-04-25T06:46:44;9.38;;;7.20;;
28625;SDS011;18905;42.668;23.364;2023-04-25T06:49:09;9.82;;;6.50;;
28625;SDS011;18905;42.668;23.364;2023-04-25T06:51:35;12.05;;;6.35;;
28625;SDS011;18905;42.668;23.364;2023-04-25T06:54:01;15.70;;;6.38;;
28625;SDS011;18905;42.668;23.364;2023-04-25T06:56:29;10.07;;;6.47;;
28625;SDS011;18905;42.668;23.364;2023-04-25T06:58:55;11.15;;;6.80;;
28625;SDS011;18905;42.668;23.364;2023-04-25T07:01:21;12.15;;;6.93;;
28625;SDS011;18905;42.668;23.364;2023-04-25T07:03:47;8.43;;;6.40;;
28625;SDS011;18905;42.668;23.364;2023-04-25T07:06:13;7.97;;;6.35;;
28625;SDS011;18905;42.668;23.364;2023-04-25T07:08:38;7.53;;;5.63;;
28625;SDS011;18905;42.668;23.364;2023-04-25T07:11:04;8.48;;;6.25;;
28625;SDS011;18905;42.668;23.364;2023-04-25T07:13:29;11.55;;;5.60;;
28625;SDS011;18905;42.668;23.364;2023-04-25T07:15:55;11.88;;;6.78;;
28625;SDS011;18905;42.668;23.364;2023-04-25T07:18:21;7.47;;;6.03;;
28625;SDS011;18905;42.668;23.364;2023-04-25T07:20:47;14.80;;;6.68;;
28625;SDS011;18905;42.668;23.364;2023-04-25T07:23:13;10.15;;;5.78;;
28625;SDS011;18905;42.668;23.364;2023-04-25T07:25:38;9.77;;;5.85;;
28625;SDS011;18905;42.668;23.364;2023-04-25T07:28:04;9.95;;;6.05;;
28625;SDS011;18905;42.668;23.364;2023-04-25T07:30:30;10.35;;;6.28;;
28625;SDS011;18905;42.668;23.364;2023-04-25T07:32:56;10.10;;;5.55;;
28625;SDS011;18905;42.668;23.364;2023-04-25T07:35:21;11.25;;;6.18;;
28625;SDS011;18905;42.668;23.364;2023-04-25T07:37:47;6.57;;;5.13;;
28625;SDS011;18905;42.668;23.364;2023-04-25T07:40:13;7.72;;;5.28;;
28625;SDS011;18905;42.668;23.364;2023-04-25T07:42:40;8.20;;;5.22;;
28625;SDS011;18905;42.668;23.364;2023-04-25T07:45:06;6.88;;;5.93;;
28625;SDS011;18905;42.668;23.364;2023-04-25T07:47:32;12.82;;;6.30;;
28625;SDS011;18905;42.668;23.364;2023-04-25T07:49:58;13.70;;;6.53;;
28625;SDS011;18905;42.668;23.364;2023-04-25T07:52:23;8.45;;;5.63;;
28625;SDS011;18905;42.668;23.364;2023-04-25T07:54:49;7.78;;;5.70;;
28625;SDS011;18905;42.668;23.364;2023-04-25T07:57:15;7.60;;;4.88;;
28625;SDS011;18905;42.668;23.364;2023-04-25T07:59:42;9.48;;;5.00;;
28625;SDS011;18905;42.668;23.364;2023-04-25T08:02:07;11.45;;;5.35;;
28625;SDS011;18905;42.668;23.364;2023-04-25T08:04:33;14.07;;;5.70;;
28625;SDS011;18905;42.668;23.364;2023-04-25T08:06:59;8.00;;;5.70;;
28625;SDS011;18905;42.668;23.364;2023-04-25T08:09:25;9.85;;;5.30;;
28625;SDS011;18905;42.668;23.364;2023-04-25T08:11:51;8.10;;;5.18;;
28625;SDS011;18905;42.668;23.364;2023-04-25T08:14:17;7.65;;;5.05;;
28625;SDS011;18905;42.668;23.364;2023-04-25T08:16:42;8.85;;;5.32;;
28625;SDS011;18905;42.668;23.364;2023-04-25T08:19:08;10.75;;;4.85;;
28625;SDS011;18905;42.668;23.364;2023-04-25T08:21:34;11.68;;;5.70;;
28625;SDS011;18905;42.668;23.364;2023-04-25T08:24:00;6.47;;;4.45;;
28625;SDS011;18905;42.668;23.364;2023-04-25T08:26:26;8.48;;;5.13;;
28625;SDS011;18905;42.668;23.364;2023-04-25T08:28:51;6.80;;;5.28;;
28625;SDS011;18905;42.668;23.364;2023-04-25T08:31:17;9.18;;;4.88;;
28625;SDS011;18905;42.668;23.364;2023-04-25T08:33:43;12.00;;;4.38;;
28625;SDS011;18905;42.668;23.364;2023-04-25T08:36:10;8.13;;;4.18;;
28625;SDS011;18905;42.668;23.364;2023-04-25T08:38:35;8.73;;;4.28;;
28625;SDS011;18905;42.668;23.364;2023-04-25T08:41:01;7.57;;;3.38;;
28625;SDS011;18905;42.668;23.364;2023-04-25T08:43:29;4.50;;;3.33;;
28625;SDS011;18905;42.668;23.364;2023-04-25T08:45:58;6.95;;;4.00;;
28625;SDS011;18905;42.668;23.364;2023-04-25T08:48:26;9.57;;;3.58;;
28625;SDS011;18905;42.668;23.364;2023-04-25T08:50:54;5.45;;;3.78;;
28625;SDS011;18905;42.668;23.364;2023-04-25T08:53:25;10.57;;;3.97;;
28625;SDS011;18905;42.668;23.364;2023-04-25T08:55:52;9.90;;;4.93;;
28625;SDS011;18905;42.668;23.364;2023-04-25T08:58:19;13.75;;;7.88;;
28625;SDS011;18905;42.668;23.364;2023-04-25T09:00:46;12.63;;;8.35;;
28625;SDS011;18905;42.668;23.364;2023-04-25T09:03:12;15.98;;;9.80;;
28625;SDS011;18905;42.668;23.364;2023-04-25T09:05:39;16.45;;;9.30;;
28625;SDS011;18905;42.668;23.364;2023-04-25T09:08:05;19.67;;;9.73;;
28625;SDS011;18905;42.668;23.364;2023-04-25T09:10:32;18.65;;;9.73;;
28625;SDS011;18905;42.668;23.364;2023-04-25T09:13:08;12.13;;;8.93;;
28625;SDS011;18905;42.668;23.364;2023-04-25T09:15:46;15.60;;;8.65;;
28625;SDS011;18905;42.668;23.364;2023-04-25T09:18:23;16.42;;;7.93;;
28625;SDS011;18905;42.668;23.364;2023-04-25T09:20:52;14.15;;;7.28;;
28625;SDS011;18905;42.668;23.364;2023-04-25T09:23:21;10.57;;;6.10;;
28625;SDS011;18905;42.668;23.364;2023-04-25T09:25:52;8.18;;;6.53;;
28625;SDS011;18905;42.668;23.364;2023-04-25T09:28:25;9.85;;;5.53;;
28625;SDS011;18905;42.668;23.364;2023-04-25T09:30:56;18.60;;;7.57;;
28625;SDS011;18905;42.668;23.364;2023-04-25T09:33:28;12.90;;;8.38;;
28625;SDS011;18905;42.668;23.364;2023-04-25T09:36:04;15.85;;;7.07;;
28625;SDS011;18905;42.668;23.364;2023-04-25T09:38:40;14.63;;;7.70;;
28625;SDS011;18905;42.668;23.364;2023-04-25T09:41:07;11.80;;;6.78;;
28625;SDS011;18905;42.668;23.364;2023-04-25T09:43:34;10.48;;;6.18;;
28625;SDS011;18905;42.668;23.364;2023-04-25T09:46:00;11.60;;;6.60;;
28625;SDS011;18905;42.668;23.364;2023-04-25T09:48:26;9.65;;;5.93;;
28625;SDS011;18905;42.668;23.364;2023-04-25T09:53:44;11.77;;;6.68;;
28625;SDS011;18905;42.668;23.364;2023-04-25T09:56:12;11.88;;;5.95;;
28625;SDS011;18905;42.668;23.364;2023-04-25T09:58:39;10.82;;;7.32;;
28625;SDS011;18905;42.668;23.364;2023-04-25T10:01:06;7.97;;;5.55;;
28625;SDS011;18905;42.668;23.364;2023-04-25T10:03:33;7.55;;;5.40;;
28625;SDS011;18905;42.668;23.364;2023-04-25T10:06:03;11.32;;;5.00;;
28625;SDS011;18905;42.668;23.364;2023-04-25T10:08:32;7.40;;;4.85;;
28625;SDS011;18905;42.668;23.364;2023-04-25T10:11:00;8.15;;;5.28;;
28625;SDS011;18905;42.668;23.364;2023-04-25T10:13:31;8.73;;;4.90;;
28625;SDS011;18905;42.668;23.364;2023-04-25T10:15:58;9.70;;;5.18;;
28625;SDS011;18905;42.668;23.364;2023-04-25T10:18:25;7.65;;;4.60;;
28625;SDS011;18905;42.668;23.364;2023-04-25T10:20:53;7.85;;;4.43;;
28625;SDS011;18905;42.668;23.364;2023-04-25T10:23:29;9.10;;;4.53;;
28625;SDS011;18905;42.668;23.364;2023-04-25T10:25:56;11.02;;;5.60;;
28625;SDS011;18905;42.668;23.364;2023-04-25T10:28:22;7.22;;;3.45;;
28625;SDS011;18905;42.668;23.364;2023-04-25T10:31:04;6.60;;;2.20;;
28625;SDS011;18905;42.668;23.364;2023-04-25T10:33:36;2.15;;;1.50;;
28625;SDS011;18905;42.668;23.364;2023-04-25T10:36:14;1.73;;;1.30;;
28625;SDS011;18905;42.668;23.364;2023-04-25T10:38:44;1.90;;;1.58;;
28625;SDS011;18905;42.668;23.364;2023-04-25T10:41:11;3.67;;;1.65;;
28625;SDS011;18905;42.668;23.364;2023-04-25T10:43:39;4.63;;;1.75;;
28625;SDS011;18905;42.668;23.364;2023-04-25T10:48:55;8.93;;;3.57;;
28625;SDS011;18905;42.668;23.364;2023-04-25T10:51:29;2.08;;;1.70;;
28625;SDS011;18905;42.668;23.364;2023-04-25T10:54:00;3.80;;;1.70;;
28625;SDS011;18905;42.668;23.364;2023-04-25T10:56:37;3.80;;;1.58;;
28625;SDS011;18905;42.668;23.364;2023-04-25T10:59:10;1.95;;;1.50;;
28625;SDS011;18905;42.668;23.364;2023-04-25T11:01:39;4.20;;;1.63;;
28625;SDS011;18905;42.668;23.364;2023-04-25T11:04:19;4.53;;;2.03;;
28625;SDS011;18905;42.668;23.364;2023-04-25T11:09:30;5.63;;;2.05;;
28625;SDS011;18905;42.668;23.364;2023-04-25T11:11:58;5.00;;;1.80;;
28625;SDS011;18905;42.668;23.364;2023-04-25T11:14:25;3.50;;;1.70;;
28625;SDS011;18905;42.668;23.364;2023-04-25T11:16:55;7.13;;;2.72;;
28625;SDS011;18905;42.668;23.364;2023-04-25T11:19:22;5.07;;;2.60;;
28625;SDS011;18905;42.668;23.364;2023-04-25T11:21:49;6.28;;;3.28;;
28625;SDS011;18905;42.668;23.364;2023-04-25T11:24:18;4.97;;;2.38;;
28625;SDS011;18905;42.668;23.364;2023-04-25T11:26:46;6.30;;;3.40;;
28625;SDS011;18905;42.668;23.364;2023-04-25T11:29:13;10.82;;;3.40;;
28625;SDS011;18905;42.668;23.364;2023-04-25T11:31:38;7.68;;;3.33;;
28625;SDS011;18905;42.668;23.364;2023-04-25T11:34:08;4.80;;;2.80;;
28625;SDS011;18905;42.668;23.364;2023-04-25T11:36:34;7.95;;;3.00;;
28625;SDS011;18905;42.668;23.364;2023-04-25T11:39:03;8.80;;;3.35;;
28625;SDS011;18905;42.668;23.364;2023-04-25T11:41:29;10.60;;;3.30;;
28625;SDS011;18905;42.668;23.364;2023-04-25T11:43:55;10.68;;;3.15;;
28625;SDS011;18905;42.668;23.364;2023-04-25T11:46:21;8.32;;;3.25;;
28625;SDS011;18905;42.668;23.364;2023-04-25T11:48:47;10.75;;;3.13;;
28625;SDS011;18905;42.668;23.364;2023-04-25T11:51:13;5.22;;;3.08;;
28625;SDS011;18905;42.668;23.364;2023-04-25T11:53:40;8.15;;;2.70;;
28625;SDS011;18905;42.668;23.364;2023-04-25T11:56:10;7.68;;;1.80;;
28625;SDS011;18905;42.668;23.364;2023-04-25T12:01:29;3.00;;;1.60;;
28625;SDS011;18905;42.668;23.364;2023-04-25T12:03:56;4.43;;;1.23;;
28625;SDS011;18905;42.668;23.364;2023-04-25T12:06:38;2.30;;;1.17;;
28625;SDS011;18905;42.668;23.364;2023-04-25T12:09:07;2.08;;;1.30;;
28625;SDS011;18905;42.668;23.364;2023-04-25T12:11:41;1.67;;;1.05;;
28625;SDS011;18905;42.668;23.364;2023-04-25T12:14:11;2.22;;;1.20;;
28625;SDS011;18905;42.668;23.364;2023-04-25T12:16:41;4.47;;;1.35;;
28625;SDS011;18905;42.668;23.364;2023-04-25T12:19:13;2.42;;;1.30;;
28625;SDS011;18905;42.668;23.364;2023-04-25T12:21:39;2.28;;;1.20;;
28625;SDS011;18905;42.668;23.364;2023-04-25T12:24:09;2.70;;;1.63;;
28625;SDS011;18905;42.668;23.364;2023-04-25T12:26:52;1.90;;;1.30;;
28625;SDS011;18905;42.668;23.364;2023-04-25T12:29:24;1.35;;;1.00;;
28625;SDS011;18905;42.668;23.364;2023-04-25T12:31:51;5.18;;;1.00;;
28625;SDS011;18905;42.668;23.364;2023-04-25T12:34:18;2.55;;;1.08;;
28625;SDS011;18905;42.668;23.364;2023-04-25T12:36:45;1.55;;;1.02;;
28625;SDS011;18905;42.668;23.364;2023-04-25T12:39:17;4.30;;;1.33;;
28625;SDS011;18905;42.668;23.364;2023-04-25T12:41:44;2.03;;;0.95;;
28625;SDS011;18905;42.668;23.364;2023-04-25T12:44:10;7.57;;;1.73;;
28625;SDS011;18905;42.668;23.364;2023-04-25T12:46:36;6.93;;;2.25;;
28625;SDS011;18905;42.668;23.364;2023-04-25T12:49:03;12.25;;;2.30;;
28625;SDS011;18905;42.668;23.364;2023-04-25T12:51:29;3.78;;;1.42;;
28625;SDS011;18905;42.668;23.364;2023-04-25T12:53:57;4.82;;;1.90;;
28625;SDS011;18905;42.668;23.364;2023-04-25T12:56:26;4.88;;;1.80;;
28625;SDS011;18905;42.668;23.364;2023-04-25T12:58:52;5.00;;;1.58;;
28625;SDS011;18905;42.668;23.364;2023-04-25T13:01:18;6.75;;;2.10;;
28625;SDS011;18905;42.668;23.364;2023-04-25T13:03:45;8.15;;;2.20;;
28625;SDS011;18905;42.668;23.364;2023-04-25T13:06:10;6.32;;;2.50;;
28625;SDS011;18905;42.668;23.364;2023-04-25T13:08:37;3.42;;;1.90;;
28625;SDS011;18905;42.668;23.364;2023-04-25T13:11:04;5.55;;;1.50;;
28625;SDS011;18905;42.668;23.364;2023-04-25T13:13:30;4.13;;;1.70;;
28625;SDS011;18905;42.668;23.364;2023-04-25T13:15:56;4.50;;;1.77;;
28625;SDS011;18905;42.668;23.364;2023-04-25T13:18:22;6.38;;;2.00;;
28625;SDS011;18905;42.668;23.364;2023-04-25T13:20:51;4.32;;;1.48;;
28625;SDS011;18905;42.668;23.364;2023-04-25T13:23:18;4.03;;;1.92;;
28625;SDS011;18905;42.668;23.364;2023-04-25T13:25:44;3.95;;;1.98;;
28625;SDS011;18905;42.668;23.364;2023-04-25T13:28:10;3.28;;;1.65;;
28625;SDS011;18905;42.668;23.364;2023-04-25T13:30:36;4.53;;;1.70;;
28625;SDS011;18905;42.668;23.364;2023-04-25T13:33:02;6.75;;;2.10;;
28625;SDS011;18905;42.668;23.364;2023-04-25T13:35:28;6.68;;;2.97;;
28625;SDS011;18905;42.668;23.364;2023-04-25T13:37:55;5.28;;;2.83;;
28625;SDS011;18905;42.668;23.364;2023-04-25T13:40:21;6.63;;;2.55;;
28625;SDS011;18905;42.668;23.364;2023-04-25T13:42:47;6.15;;;2.20;;
28625;SDS011;18905;42.668;23.364;2023-04-25T13:45:12;5.10;;;2.50;;
28625;SDS011;18905;42.668;23.364;2023-04-25T13:47:38;4.28;;;2.72;;
28625;SDS011;18905;42.668;23.364;2023-04-25T13:50:03;4.75;;;2.70;;
28625;SDS011;18905;42.668;23.364;2023-04-25T13:52:32;5.40;;;2.33;;
28625;SDS011;18905;42.668;23.364;2023-04-25T13:54:58;4.72;;;2.78;;
28625;SDS011;18905;42.668;23.364;2023-04-25T13:57:24;5.97;;;2.70;;
28625;SDS011;18905;42.668;23.364;2023-04-25T13:59:50;4.78;;;2.67;;
28625;SDS011;18905;42.668;23.364;2023-04-25T14:02:16;4.80;;;2.45;;
28625;SDS011;18905;42.668;23.364;2023-04-25T14:04:41;7.53;;;2.72;;
28625;SDS011;18905;42.668;23.364;2023-04-25T14:07:07;7.05;;;2.75;;
28625;SDS011;18905;42.668;23.364;2023-04-25T14:09:33;6.70;;;4.22;;
28625;SDS011;18905;42.668;23.364;2023-04-25T14:11:59;5.03;;;3.13;;
28625;SDS011;18905;42.668;23.364;2023-04-25T14:14:25;4.88;;;2.45;;
28625;SDS011;18905;42.668;23.364;2023-04-25T14:16:51;3.40;;;1.90;;
28625;SDS011;18905;42.668;23.364;2023-04-25T14:19:18;3.65;;;1.80;;
28625;SDS011;18905;42.668;23.364;2023-04-25T14:21:44;9.85;;;4.75;;
28625;SDS011;18905;42.668;23.364;2023-04-25T14:24:11;16.10;;;6.75;;
28625;SDS011;18905;42.668;23.364;2023-04-25T14:26:37;13.07;;;6.03;;
28625;SDS011;18905;42.668;23.364;2023-04-25T14:29:03;8.23;;;2.00;;
28625;SDS011;18905;42.668;23.364;2023-04-25T14:31:30;9.77;;;3.35;;
28625;SDS011;18905;42.668;23.364;2023-04-25T14:33:56;6.53;;;2.58;;
28625;SDS011;18905;42.668;23.364;2023-04-25T14:36:21;4.70;;;2.38;;
28625;SDS011;18905;42.668;23.364;2023-04-25T14:38:47;1.48;;;1.20;;
28625;SDS011;18905;42.668;23.364;2023-04-25T14:41:12;3.88;;;1.10;;
28625;SDS011;18905;42.668;23.364;2023-04-25T14:43:38;3.30;;;1.08;;